Nearby METAR* Reports

*"METAR [Météorologique Aviation Régulière] is the international standard code format for hourly surface weather observations which is analogous to the SA coding currently used in the US. The acronym roughly translates from French as Aviation Routine Weather Report." (Source: http://gosic.org/wdcmet/us-metar-faq-taf)

 

KTEB - Teterboro, New Jersey, USA
Distance from station: ENE 2mi, 3km
Updated: 01/26/2020 5:51am
Clear
Clear
 Wind from SSW
Wind: SSW 3 mph , 6 km/h
Temperature: 36°F , 2°C
Dew Point: 32°F , 0°C
Humidity: 87%
Barometer: 29.79 inHg , 1008.8 hPa
Clouds: Clear
Visibility: 10 miles , 16 km
2020/01/26 10:51 KTEB 261051Z 20003KT 10SM CLR 02/00 A2979 RMK AO2 SLP086 T00220000 $
KNYC - Nyc/Central Park, New York, USA
Distance from station: SE 8mi, 13km
Updated: 01/26/2020 4:51am
Few Clouds
Few Clouds
 
Temperature: 39°F , 4°C
Dew Point: 34°F , 1°C
Humidity: 81%
Barometer: 29.81 inHg , 1009.5 hPa
Clouds: Few Clouds
Visibility: 10 miles , 16 km
Cloud details: Few Clouds 2900 ft
2020/01/26 09:51 KNYC 260951Z AUTO 10SM FEW029 04/01 A2981 RMK AO2 SLP088 T00440011 $
KCDW - Caldwell, New Jersey, USA
Distance from station: W 11mi, 17km
Updated: 01/26/2020 4:53am
Clear
Clear
 Wind from calm
Wind: Calm
Temperature: 36°F , 2°C
Dew Point: 34°F , 1°C
Humidity: 93%
Barometer: 29.80 inHg , 1009.1 hPa
Clouds: Clear
Visibility: 10 miles , 16 km
2020/01/26 09:53 KCDW 260953Z AUTO 00000KT 10SM CLR 02/01 A2980 RMK AO2 SLP097 T00220006
 
KLGA - Nyc/La Guardia, New York, USA
Distance from station: ESE 12mi, 19km
Updated: 01/26/2020 5:51am
Few Clouds
Few Clouds
 Wind from WSW
Wind: WSW 12 mph , 19 km/h
Temperature: 39°F , 4°C
Wind Chill: 32°F , 0°C
Dew Point: 32°F , 0°C
Humidity: 75%
Barometer: 29.79 inHg , 1008.8 hPa
Clouds: Few Clouds
Visibility: 10 miles , 16 km
Cloud details: Few Clouds 1500 ft
2020/01/26 10:51 KLGA 261051Z 25010KT 10SM FEW015 04/00 A2979 RMK AO2 SLP088 T00440000
KEWR - Newark, New Jersey, USA
Distance from station: SSW 13mi, 20km
Updated: 01/26/2020 5:51am
Clear
Clear
 Wind from WSW
Wind: WSW 9 mph , 15 km/h
Temperature: 36°F , 2°C
Wind Chill: 29°F , -2°C
Dew Point: 34°F , 1°C
Humidity: 93%
Barometer: 29.80 inHg , 1009.1 hPa
Clouds: Clear
Visibility: 10 miles , 16 km
2020/01/26 10:51 KEWR 261051Z 24008KT 10SM CLR 02/01 A2980 RMK AO2 SLP092 T00220006
KMMU - Morristown Muni, New Jersey, USA
Distance from station: WSW 18mi, 29km
Updated: 01/26/2020 5:35am
Clear
Clear
 Wind from SE
Wind: SE 3 mph , 6 km/h
Temperature: 30°F , -1°C
Dew Point: 30°F , -1°C
Humidity: 100%
Barometer: 29.79 inHg , 1008.8 hPa
Clouds: Clear
Visibility: 7 miles , 11 km
2020/01/26 10:35 KMMU 261035Z AUTO 14003KT 7SM CLR M01/M01 A2979 RMK AO2
 
KLDJ - Linden, New Jersey, USA
Distance from station: SSW 19mi, 30km
Updated: 01/26/2020 5:55am
Clear
Clear
 Wind from calm
Wind: Calm
Temperature: 37°F , 3°C
Dew Point: 34°F , 1°C
Humidity: 87%
Barometer: 29.81 inHg , 1009.5 hPa
Clouds: Clear
Visibility: 10 miles , 16 km
2020/01/26 10:55 KLDJ 261055Z AUTO 00000KT 10SM CLR 03/01 A2981 RMK AO2 T00270005
KJFK - Nyc/Jfk Arpt, New York, USA
Distance from station: SE 23mi, 36km
Updated: 01/26/2020 5:51am
Few Clouds
Few Clouds
 Wind from WSW
Wind: WSW 9 mph , 15 km/h
Temperature: 37°F , 3°C
Wind Chill: 30°F , -1°C
Dew Point: 36°F , 2°C
Humidity: 93%
Barometer: 29.81 inHg , 1009.5 hPa
Clouds: Few Clouds
Visibility: 10 miles , 16 km
Cloud details: Few Clouds 3000 ft
2020/01/26 10:51 KJFK 261051Z 25008KT 10SM FEW030 03/02 A2981 RMK AO2 SLP095 T00280022 $
KHPN - White Plains, New York, USA
Distance from station: NE 25mi, 40km
Updated: 01/26/2020 4:56am
Few Clouds
Few Clouds
 Wind from W
Wind: W 7 mph , 11 km/h
Temperature: 36°F , 2°C
Wind Chill: 30°F , -1°C
Dew Point: 34°F , 1°C
Humidity: 93%
Barometer: 29.76 inHg , 1007.8 hPa
Clouds: Few Clouds
Visibility: 10 miles , 16 km
Cloud details: Few Clouds 1800 ft
2020/01/26 09:56 KHPN 260956Z 27006KT 10SM FEW018 02/01 A2976 RMK AO2 SLP083 T00220006
 
KSMQ - Somerville, New Jersey, USA
Distance from station: WSW 35mi, 56km
Updated: 01/26/2020 4:53am
Clear
Clear
 Wind from calm
Wind: Calm
Temperature: 28°F , -2°C
Dew Point: 27°F , -3°C
Humidity: 93%
Barometer: 29.79 inHg , 1008.8 hPa
Clouds: Clear
Visibility: 8 miles , 13 km
2020/01/26 09:53 KSMQ 260953Z AUTO 00000KT 8SM CLR M02/M03 A2979 RMK AO2 SLP091 I1001 T10221033
K12N - Andover, New Jersey, USA
Distance from station: WNW 36mi, 57km
Updated: 01/26/2020 4:54am

 Wind from S
Wind: S 3 mph , 6 km/h
Temperature: 34°F , 1°C
Dew Point: 32°F , 0°C
Humidity: 93%
Barometer: 29.79 inHg , 1008.8 hPa
2020/01/26 09:54 K12N 260954Z AUTO 18003KT 01/00 A2979 RMK AO1 SLP094 T00110000
KFRG - Farmingdale, New York, USA
Distance from station: ESE 36mi, 58km
Updated: 01/26/2020 4:53am
Clear
Clear
 Wind from W
Wind: W 7 mph , 11 km/h
Temperature: 37°F , 3°C
Wind Chill: 32°F , 0°C
Dew Point: 34°F , 1°C
Humidity: 87%
Barometer: 29.79 inHg , 1008.8 hPa
Clouds: Clear
Visibility: 10 miles , 16 km
2020/01/26 09:53 KFRG 260953Z AUTO 27006KT 10SM CLR 03/01 A2979 RMK AO2 SLP088 T00330011
 
KFWN - Sussex, New Jersey, USA
Distance from station: NW 37mi, 60km
Updated: 01/26/2020 4:53am
Freezing fog, Overcast
Freezing fog, Overcast
 Wind from calm
Wind: Calm
Temperature: 30°F , -1°C
Dew Point: 28°F , -2°C
Humidity: 93%
Barometer: 29.77 inHg , 1008.1 hPa
Summary: Freezing Fog
Clouds: Overcast
Visibility: 1/2 mile , 0.8 km
Cloud details: Overcast 100 ft
2020/01/26 09:53 KFWN 260953Z AUTO 00000KT 1/2SM FZFG VV001 M01/M02 A2977 RMK AO2 SLP085 I1001 T10061017
KSWF - Newburgh/Stewart, New York, USA
Distance from station: 0 44mi, 72km
Updated: 01/26/2020 5:45am
Clear
Clear
 Wind from WNW
Wind: WNW 9 mph , 15 km/h
Temperature: 34°F , 1°C
Wind Chill: 27°F , -3°C
Dew Point: 34°F , 1°C
Humidity: 100%
Barometer: 29.77 inHg , 1008.1 hPa
Clouds: Clear
Visibility: 10 miles , 16 km
2020/01/26 10:45 KSWF 261045Z 29008KT 10SM SKC 01/01 A2977
KMGJ - Montgomery, New York, USA
Distance from station: NNW 47mi, 75km
Updated: 01/26/2020 5:42am
Mostly cloudy
Mostly cloudy
 Wind from calm
Wind: Calm
Temperature: 27°F , -3°C
Dew Point: 27°F , -3°C
Humidity: 100%
Barometer: 29.77 inHg , 1008.1 hPa
Clouds: Mostly cloudy
Visibility: 10 miles , 16 km
Cloud details: Mostly cloudy 1900 ft
Mostly cloudy 2400 ft
2020/01/26 10:42 KMGJ 261042Z AUTO 00000KT 10SM BKN019 BKN024 M03/M03 A2977 RMK AO2 T10281028
 
KDXR - Danbury, Connecticut, USA
Distance from station: NE 47mi, 76km
Updated: 01/26/2020 4:53am
Clear
Clear
 Wind from WSW
Wind: WSW 3 mph , 6 km/h
Temperature: 32°F , 0°C
Dew Point: 30°F , -1°C
Humidity: 93%
Barometer: 29.77 inHg , 1008.1 hPa
Clouds: Clear
Visibility: 10 miles , 16 km
2020/01/26 09:53 KDXR 260953Z AUTO 25003KT 10SM CLR 00/M01 A2977 RMK AO2 SLP082 T00001006
KBLM - Belmar/Farmdale, New Jersey, USA
Distance from station: S 48mi, 77km
Updated: 01/26/2020 4:56am
Clear
Clear
 Wind from WSW
Wind: WSW 6 mph , 9 km/h
Temperature: 36°F , 2°C
Wind Chill: 31°F , -1°C
Dew Point: 36°F , 2°C
Humidity: 100%
Barometer: 29.83 inHg , 1010.2 hPa
Clouds: Clear
Visibility: 10 miles , 16 km
2020/01/26 09:56 KBLM 260956Z AUTO 25005KT 10SM CLR 02/02 A2983 RMK AO2 SLP103 T00170017 FZRANO